sensor_id;sensor_type;location;lat;lon;timestamp;temperature;humidity
7234;DHT22;3658;47.992;10.158;2023-12-20T00:02:19;22.10;38.30
7234;DHT22;3658;47.992;10.158;2023-12-20T00:04:46;22.10;38.30
7234;DHT22;3658;47.992;10.158;2023-12-20T00:07:13;22.10;38.30
7234;DHT22;3658;47.992;10.158;2023-12-20T00:09:41;22.10;38.90
7234;DHT22;3658;47.992;10.158;2023-12-20T00:12:08;22.10;39.00
7234;DHT22;3658;47.992;10.158;2023-12-20T00:14:34;22.10;38.30
7234;DHT22;3658;47.992;10.158;2023-12-20T00:17:01;22.20;38.30
7234;DHT22;3658;47.992;10.158;2023-12-20T00:19:28;22.20;38.20
7234;DHT22;3658;47.992;10.158;2023-12-20T00:21:55;22.20;37.90
7234;DHT22;3658;47.992;10.158;2023-12-20T00:24:21;22.20;37.60
7234;DHT22;3658;47.992;10.158;2023-12-20T00:26:49;22.20;37.30
7234;DHT22;3658;47.992;10.158;2023-12-20T00:29:16;22.20;37.20
7234;DHT22;3658;47.992;10.158;2023-12-20T00:31:43;22.20;37.20
7234;DHT22;3658;47.992;10.158;2023-12-20T00:34:10;22.20;37.00
7234;DHT22;3658;47.992;10.158;2023-12-20T00:36:37;22.20;36.90
7234;DHT22;3658;47.992;10.158;2023-12-20T00:39:04;22.20;36.70
7234;DHT22;3658;47.992;10.158;2023-12-20T00:41:32;22.20;36.70
7234;DHT22;3658;47.992;10.158;2023-12-20T00:44:00;22.20;36.60
7234;DHT22;3658;47.992;10.158;2023-12-20T00:46:27;22.20;36.50
7234;DHT22;3658;47.992;10.158;2023-12-20T00:48:53;22.20;36.50
7234;DHT22;3658;47.992;10.158;2023-12-20T00:51:20;22.20;36.40
7234;DHT22;3658;47.992;10.158;2023-12-20T00:53:48;22.20;36.40
7234;DHT22;3658;47.992;10.158;2023-12-20T00:56:14;22.20;36.30
7234;DHT22;3658;47.992;10.158;2023-12-20T00:58:41;22.20;36.30
7234;DHT22;3658;47.992;10.158;2023-12-20T01:01:09;22.20;36.20
7234;DHT22;3658;47.992;10.158;2023-12-20T01:03:36;22.20;36.20
7234;DHT22;3658;47.992;10.158;2023-12-20T01:06:03;22.20;36.20
7234;DHT22;3658;47.992;10.158;2023-12-20T01:08:31;22.20;36.20
7234;DHT22;3658;47.992;10.158;2023-12-20T01:10:57;22.20;36.10
7234;DHT22;3658;47.992;10.158;2023-12-20T01:13:24;22.20;36.10
7234;DHT22;3658;47.992;10.158;2023-12-20T01:15:51;22.20;36.00
7234;DHT22;3658;47.992;10.158;2023-12-20T01:18:19;22.20;36.00
7234;DHT22;3658;47.992;10.158;2023-12-20T01:20:45;22.20;35.90
7234;DHT22;3658;47.992;10.158;2023-12-20T01:23:12;22.20;35.90
7234;DHT22;3658;47.992;10.158;2023-12-20T01:25:39;22.20;35.90
7234;DHT22;3658;47.992;10.158;2023-12-20T01:28:06;22.20;35.90
7234;DHT22;3658;47.992;10.158;2023-12-20T01:30:32;22.20;35.90
7234;DHT22;3658;47.992;10.158;2023-12-20T01:33:00;22.10;35.80
7234;DHT22;3658;47.992;10.158;2023-12-20T01:35:28;22.20;35.80
7234;DHT22;3658;47.992;10.158;2023-12-20T01:37:55;22.20;35.80
7234;DHT22;3658;47.992;10.158;2023-12-20T01:40:23;22.20;35.80
7234;DHT22;3658;47.992;10.158;2023-12-20T01:42:58;22.20;35.80
7234;DHT22;3658;47.992;10.158;2023-12-20T01:45:25;22.20;35.80
7234;DHT22;3658;47.992;10.158;2023-12-20T01:47:52;22.20;35.80
7234;DHT22;3658;47.992;10.158;2023-12-20T01:50:19;22.20;35.70
7234;DHT22;3658;47.992;10.158;2023-12-20T01:52:47;22.20;35.70
7234;DHT22;3658;47.992;10.158;2023-12-20T01:55:17;22.20;35.70
7234;DHT22;3658;47.992;10.158;2023-12-20T01:57:44;22.20;35.70
7234;DHT22;3658;47.992;10.158;2023-12-20T02:00:13;22.20;35.70
7234;DHT22;3658;47.992;10.158;2023-12-20T02:02:41;22.20;35.70
7234;DHT22;3658;47.992;10.158;2023-12-20T02:05:08;22.20;35.60
7234;DHT22;3658;47.992;10.158;2023-12-20T02:07:35;22.20;35.70
7234;DHT22;3658;47.992;10.158;2023-12-20T02:10:04;22.20;35.70
7234;DHT22;3658;47.992;10.158;2023-12-20T02:12:31;22.20;35.60
7234;DHT22;3658;47.992;10.158;2023-12-20T02:14:58;22.20;35.60
7234;DHT22;3658;47.992;10.158;2023-12-20T02:17:25;22.20;35.50
7234;DHT22;3658;47.992;10.158;2023-12-20T02:19:52;22.20;35.50
7234;DHT22;3658;47.992;10.158;2023-12-20T02:22:20;22.20;35.50
7234;DHT22;3658;47.992;10.158;2023-12-20T02:24:47;22.20;35.60
7234;DHT22;3658;47.992;10.158;2023-12-20T02:27:15;22.20;35.50
7234;DHT22;3658;47.992;10.158;2023-12-20T02:29:43;22.20;35.50
7234;DHT22;3658;47.992;10.158;2023-12-20T02:32:09;22.20;35.50
7234;DHT22;3658;47.992;10.158;2023-12-20T02:34:36;22.20;35.50
7234;DHT22;3658;47.992;10.158;2023-12-20T02:37:03;22.20;35.40
7234;DHT22;3658;47.992;10.158;2023-12-20T02:39:31;22.20;35.40
7234;DHT22;3658;47.992;10.158;2023-12-20T02:41:58;22.10;35.40
7234;DHT22;3658;47.992;10.158;2023-12-20T02:44:25;22.20;35.40
7234;DHT22;3658;47.992;10.158;2023-12-20T02:46:52;22.20;35.40
7234;DHT22;3658;47.992;10.158;2023-12-20T02:49:19;22.20;35.40
7234;DHT22;3658;47.992;10.158;2023-12-20T02:51:45;22.20;36.10
7234;DHT22;3658;47.992;10.158;2023-12-20T02:54:12;22.20;35.40
7234;DHT22;3658;47.992;10.158;2023-12-20T02:56:41;22.20;35.40
7234;DHT22;3658;47.992;10.158;2023-12-20T02:59:08;22.20;35.40
7234;DHT22;3658;47.992;10.158;2023-12-20T03:01:35;22.20;35.40
7234;DHT22;3658;47.992;10.158;2023-12-20T03:04:01;22.20;35.40
7234;DHT22;3658;47.992;10.158;2023-12-20T03:06:28;22.20;35.40
7234;DHT22;3658;47.992;10.158;2023-12-20T03:08:55;22.20;35.40
7234;DHT22;3658;47.992;10.158;2023-12-20T03:11:22;22.20;35.40
7234;DHT22;3658;47.992;10.158;2023-12-20T03:13:54;22.20;35.40
7234;DHT22;3658;47.992;10.158;2023-12-20T03:16:20;22.20;35.40
7234;DHT22;3658;47.992;10.158;2023-12-20T03:18:47;22.20;35.40
7234;DHT22;3658;47.992;10.158;2023-12-20T03:21:14;22.20;35.40
7234;DHT22;3658;47.992;10.158;2023-12-20T03:23:41;22.20;35.40
7234;DHT22;3658;47.992;10.158;2023-12-20T03:26:09;22.20;35.40
7234;DHT22;3658;47.992;10.158;2023-12-20T03:28:36;22.20;35.30
7234;DHT22;3658;47.992;10.158;2023-12-20T03:31:04;22.20;35.30
7234;DHT22;3658;47.992;10.158;2023-12-20T03:33:31;22.20;35.30
7234;DHT22;3658;47.992;10.158;2023-12-20T03:35:58;22.20;35.40
7234;DHT22;3658;47.992;10.158;2023-12-20T03:38:25;22.20;35.30
7234;DHT22;3658;47.992;10.158;2023-12-20T03:40:51;22.20;35.30
7234;DHT22;3658;47.992;10.158;2023-12-20T03:43:18;22.20;35.30
7234;DHT22;3658;47.992;10.158;2023-12-20T03:45:45;22.20;35.30
7234;DHT22;3658;47.992;10.158;2023-12-20T03:48:13;22.20;35.40
7234;DHT22;3658;47.992;10.158;2023-12-20T03:50:41;22.20;35.40
7234;DHT22;3658;47.992;10.158;2023-12-20T03:53:08;22.20;35.40
7234;DHT22;3658;47.992;10.158;2023-12-20T03:55:34;22.20;35.40
7234;DHT22;3658;47.992;10.158;2023-12-20T03:58:01;22.20;35.30
7234;DHT22;3658;47.992;10.158;2023-12-20T04:00:28;22.20;35.30
7234;DHT22;3658;47.992;10.158;2023-12-20T04:02:54;22.20;35.40
7234;DHT22;3658;47.992;10.158;2023-12-20T04:05:22;22.20;35.30
7234;DHT22;3658;47.992;10.158;2023-12-20T04:07:48;22.20;35.30
7234;DHT22;3658;47.992;10.158;2023-12-20T04:10:16;22.20;35.30
7234;DHT22;3658;47.992;10.158;2023-12-20T04:12:42;22.20;35.40
7234;DHT22;3658;47.992;10.158;2023-12-20T04:15:09;22.20;35.30
7234;DHT22;3658;47.992;10.158;2023-12-20T04:17:37;22.20;35.30
7234;DHT22;3658;47.992;10.158;2023-12-20T04:20:05;22.20;35.30
7234;DHT22;3658;47.992;10.158;2023-12-20T04:22:33;22.20;35.30
7234;DHT22;3658;47.992;10.158;2023-12-20T04:25:00;22.20;35.30
7234;DHT22;3658;47.992;10.158;2023-12-20T04:27:27;22.20;35.30
7234;DHT22;3658;47.992;10.158;2023-12-20T04:29:54;22.20;35.30
7234;DHT22;3658;47.992;10.158;2023-12-20T04:32:21;22.20;35.30
7234;DHT22;3658;47.992;10.158;2023-12-20T04:34:47;22.20;35.30
7234;DHT22;3658;47.992;10.158;2023-12-20T04:37:14;22.20;35.30
7234;DHT22;3658;47.992;10.158;2023-12-20T04:39:42;22.20;35.20
7234;DHT22;3658;47.992;10.158;2023-12-20T04:42:09;22.20;35.30
7234;DHT22;3658;47.992;10.158;2023-12-20T04:44:35;22.20;35.30
7234;DHT22;3658;47.992;10.158;2023-12-20T04:47:02;22.20;35.20
7234;DHT22;3658;47.992;10.158;2023-12-20T04:49:29;22.20;35.30
7234;DHT22;3658;47.992;10.158;2023-12-20T04:51:56;22.20;35.20
7234;DHT22;3658;47.992;10.158;2023-12-20T04:54:23;22.20;35.30
7234;DHT22;3658;47.992;10.158;2023-12-20T04:56:51;22.20;35.20
7234;DHT22;3658;47.992;10.158;2023-12-20T04:59:17;22.20;35.20
7234;DHT22;3658;47.992;10.158;2023-12-20T05:01:44;22.20;35.20
7234;DHT22;3658;47.992;10.158;2023-12-20T05:04:11;22.20;35.20
7234;DHT22;3658;47.992;10.158;2023-12-20T05:06:38;22.20;35.20
7234;DHT22;3658;47.992;10.158;2023-12-20T05:09:04;22.20;35.20
7234;DHT22;3658;47.992;10.158;2023-12-20T05:11:31;22.20;35.20
7234;DHT22;3658;47.992;10.158;2023-12-20T05:13:59;22.20;35.20
7234;DHT22;3658;47.992;10.158;2023-12-20T05:16:26;22.20;35.20
7234;DHT22;3658;47.992;10.158;2023-12-20T05:18:53;22.20;35.20
7234;DHT22;3658;47.992;10.158;2023-12-20T05:21:20;22.20;35.20
7234;DHT22;3658;47.992;10.158;2023-12-20T05:23:46;22.20;35.20
7234;DHT22;3658;47.992;10.158;2023-12-20T05:26:13;22.20;35.20
7234;DHT22;3658;47.992;10.158;2023-12-20T05:28:40;22.20;35.30
7234;DHT22;3658;47.992;10.158;2023-12-20T05:31:08;22.20;35.20
7234;DHT22;3658;47.992;10.158;2023-12-20T05:33:35;22.20;35.20
7234;DHT22;3658;47.992;10.158;2023-12-20T05:36:02;22.20;35.20
7234;DHT22;3658;47.992;10.158;2023-12-20T05:38:29;22.20;35.20
7234;DHT22;3658;47.992;10.158;2023-12-20T05:40:56;22.20;35.20
7234;DHT22;3658;47.992;10.158;2023-12-20T05:43:22;22.20;35.20
7234;DHT22;3658;47.992;10.158;2023-12-20T05:45:49;22.20;35.90
7234;DHT22;3658;47.992;10.158;2023-12-20T05:48:17;22.20;35.20
7234;DHT22;3658;47.992;10.158;2023-12-20T05:50:44;22.20;35.20
7234;DHT22;3658;47.992;10.158;2023-12-20T05:53:11;22.20;35.20
7234;DHT22;3658;47.992;10.158;2023-12-20T05:55:37;22.20;35.20
7234;DHT22;3658;47.992;10.158;2023-12-20T05:58:04;22.20;35.10
7234;DHT22;3658;47.992;10.158;2023-12-20T06:00:31;22.20;35.10
7234;DHT22;3658;47.992;10.158;2023-12-20T06:02:58;22.20;35.10
7234;DHT22;3658;47.992;10.158;2023-12-20T06:05:26;22.20;35.10
7234;DHT22;3658;47.992;10.158;2023-12-20T06:07:53;22.20;35.10
7234;DHT22;3658;47.992;10.158;2023-12-20T06:10:22;22.20;35.10
7234;DHT22;3658;47.992;10.158;2023-12-20T06:12:48;22.20;35.10
7234;DHT22;3658;47.992;10.158;2023-12-20T06:15:16;22.20;35.10
7234;DHT22;3658;47.992;10.158;2023-12-20T06:17:43;22.20;35.20
7234;DHT22;3658;47.992;10.158;2023-12-20T06:20:10;22.20;35.10
7234;DHT22;3658;47.992;10.158;2023-12-20T06:22:38;22.20;35.20
7234;DHT22;3658;47.992;10.158;2023-12-20T06:25:05;22.20;35.10
7234;DHT22;3658;47.992;10.158;2023-12-20T06:27:32;22.20;35.10
7234;DHT22;3658;47.992;10.158;2023-12-20T06:29:59;22.20;35.10
7234;DHT22;3658;47.992;10.158;2023-12-20T06:32:26;22.20;35.10
7234;DHT22;3658;47.992;10.158;2023-12-20T06:34:54;22.20;35.20
7234;DHT22;3658;47.992;10.158;2023-12-20T06:37:21;22.20;35.10
7234;DHT22;3658;47.992;10.158;2023-12-20T06:39:49;22.20;35.00
7234;DHT22;3658;47.992;10.158;2023-12-20T06:42:15;22.20;35.10
7234;DHT22;3658;47.992;10.158;2023-12-20T06:44:42;22.20;35.10
7234;DHT22;3658;47.992;10.158;2023-12-20T06:47:09;22.20;35.10
7234;DHT22;3658;47.992;10.158;2023-12-20T06:49:36;22.20;35.10
7234;DHT22;3658;47.992;10.158;2023-12-20T06:52:03;22.20;35.10
7234;DHT22;3658;47.992;10.158;2023-12-20T06:54:30;22.20;35.10
7234;DHT22;3658;47.992;10.158;2023-12-20T06:56:58;22.20;35.10
7234;DHT22;3658;47.992;10.158;2023-12-20T06:59:24;22.20;35.10
7234;DHT22;3658;47.992;10.158;2023-12-20T07:01:51;22.20;35.10
7234;DHT22;3658;47.992;10.158;2023-12-20T07:04:18;22.20;35.70
7234;DHT22;3658;47.992;10.158;2023-12-20T07:06:47;22.20;36.40
7234;DHT22;3658;47.992;10.158;2023-12-20T07:09:14;22.10;36.80
7234;DHT22;3658;47.992;10.158;2023-12-20T07:11:40;22.10;37.00
7234;DHT22;3658;47.992;10.158;2023-12-20T07:14:09;22.10;37.10
7234;DHT22;3658;47.992;10.158;2023-12-20T07:16:36;22.10;37.10
7234;DHT22;3658;47.992;10.158;2023-12-20T07:19:02;22.10;37.30
7234;DHT22;3658;47.992;10.158;2023-12-20T07:21:29;22.10;37.30
7234;DHT22;3658;47.992;10.158;2023-12-20T07:23:56;22.10;37.50
7234;DHT22;3658;47.992;10.158;2023-12-20T07:26:22;22.10;37.50
7234;DHT22;3658;47.992;10.158;2023-12-20T07:28:50;22.10;37.60
7234;DHT22;3658;47.992;10.158;2023-12-20T07:31:20;22.10;37.60
7234;DHT22;3658;47.992;10.158;2023-12-20T07:33:49;22.10;37.60
7234;DHT22;3658;47.992;10.158;2023-12-20T07:36:16;22.10;37.60
7234;DHT22;3658;47.992;10.158;2023-12-20T07:38:43;22.10;37.60
7234;DHT22;3658;47.992;10.158;2023-12-20T07:41:10;22.10;37.50
7234;DHT22;3658;47.992;10.158;2023-12-20T07:43:37;22.10;37.50
7234;DHT22;3658;47.992;10.158;2023-12-20T07:46:06;22.10;37.50
7234;DHT22;3658;47.992;10.158;2023-12-20T07:48:35;22.10;37.50
7234;DHT22;3658;47.992;10.158;2023-12-20T07:51:03;22.10;37.70
7234;DHT22;3658;47.992;10.158;2023-12-20T07:53:31;22.20;38.20
7234;DHT22;3658;47.992;10.158;2023-12-20T07:55:58;22.30;38.40
7234;DHT22;3658;47.992;10.158;2023-12-20T07:58:25;22.30;38.30
7234;DHT22;3658;47.992;10.158;2023-12-20T08:00:52;22.30;38.30
7234;DHT22;3658;47.992;10.158;2023-12-20T08:03:18;22.40;38.20
7234;DHT22;3658;47.992;10.158;2023-12-20T08:05:46;22.40;38.20
7234;DHT22;3658;47.992;10.158;2023-12-20T08:08:13;22.40;38.20
7234;DHT22;3658;47.992;10.158;2023-12-20T08:10:40;22.40;38.10
7234;DHT22;3658;47.992;10.158;2023-12-20T08:13:07;22.40;38.10
7234;DHT22;3658;47.992;10.158;2023-12-20T08:15:34;22.40;38.10
7234;DHT22;3658;47.992;10.158;2023-12-20T08:18:00;22.40;38.10
7234;DHT22;3658;47.992;10.158;2023-12-20T08:20:27;22.40;38.10
7234;DHT22;3658;47.992;10.158;2023-12-20T08:22:55;22.50;38.10
7234;DHT22;3658;47.992;10.158;2023-12-20T08:25:22;22.40;38.10
7234;DHT22;3658;47.992;10.158;2023-12-20T08:27:49;22.40;38.10
7234;DHT22;3658;47.992;10.158;2023-12-20T08:30:15;22.40;38.00
7234;DHT22;3658;47.992;10.158;2023-12-20T08:32:46;22.40;38.00
7234;DHT22;3658;47.992;10.158;2023-12-20T08:35:13;22.40;38.20
7234;DHT22;3658;47.992;10.158;2023-12-20T08:37:39;22.40;38.10
7234;DHT22;3658;47.992;10.158;2023-12-20T08:40:08;22.40;38.20
7234;DHT22;3658;47.992;10.158;2023-12-20T08:42:35;22.50;38.20
7234;DHT22;3658;47.992;10.158;2023-12-20T08:45:03;22.40;38.10
7234;DHT22;3658;47.992;10.158;2023-12-20T08:47:29;22.40;38.10
7234;DHT22;3658;47.992;10.158;2023-12-20T08:49:56;22.40;38.10
7234;DHT22;3658;47.992;10.158;2023-12-20T08:52:25;22.40;38.10
7234;DHT22;3658;47.992;10.158;2023-12-20T08:54:53;22.50;38.30
7234;DHT22;3658;47.992;10.158;2023-12-20T08:57:21;22.50;38.10
7234;DHT22;3658;47.992;10.158;2023-12-20T08:59:49;22.50;38.20
7234;DHT22;3658;47.992;10.158;2023-12-20T09:02:16;22.50;38.20
7234;DHT22;3658;47.992;10.158;2023-12-20T09:04:42;22.50;38.10
7234;DHT22;3658;47.992;10.158;2023-12-20T09:07:21;22.50;38.30
7234;DHT22;3658;47.992;10.158;2023-12-20T09:09:47;22.50;38.20
7234;DHT22;3658;47.992;10.158;2023-12-20T09:12:14;22.50;38.10
7234;DHT22;3658;47.992;10.158;2023-12-20T09:14:42;22.50;38.10
7234;DHT22;3658;47.992;10.158;2023-12-20T09:17:09;22.50;38.10
7234;DHT22;3658;47.992;10.158;2023-12-20T09:19:37;22.50;38.00
7234;DHT22;3658;47.992;10.158;2023-12-20T09:22:04;22.50;38.00
7234;DHT22;3658;47.992;10.158;2023-12-20T09:24:31;22.50;38.00
7234;DHT22;3658;47.992;10.158;2023-12-20T09:26:58;22.50;38.10
7234;DHT22;3658;47.992;10.158;2023-12-20T09:29:24;22.50;38.10
7234;DHT22;3658;47.992;10.158;2023-12-20T09:31:52;22.50;38.10
7234;DHT22;3658;47.992;10.158;2023-12-20T09:34:19;22.50;38.10
7234;DHT22;3658;47.992;10.158;2023-12-20T09:36:46;22.50;38.20
7234;DHT22;3658;47.992;10.158;2023-12-20T09:39:13;22.50;38.20
7234;DHT22;3658;47.992;10.158;2023-12-20T09:41:43;22.50;38.30
7234;DHT22;3658;47.992;10.158;2023-12-20T09:44:14;22.50;38.30
7234;DHT22;3658;47.992;10.158;2023-12-20T09:46:43;22.50;38.30
7234;DHT22;3658;47.992;10.158;2023-12-20T09:49:12;22.50;38.30
7234;DHT22;3658;47.992;10.158;2023-12-20T09:51:40;22.50;38.40
7234;DHT22;3658;47.992;10.158;2023-12-20T09:54:07;22.50;38.30
7234;DHT22;3658;47.992;10.158;2023-12-20T09:56:34;22.50;38.40
7234;DHT22;3658;47.992;10.158;2023-12-20T09:59:00;22.40;38.40
7234;DHT22;3658;47.992;10.158;2023-12-20T10:01:28;22.40;38.30
7234;DHT22;3658;47.992;10.158;2023-12-20T10:03:55;22.30;38.20
7234;DHT22;3658;47.992;10.158;2023-12-20T10:06:24;22.30;38.40
7234;DHT22;3658;47.992;10.158;2023-12-20T10:08:50;22.30;39.30
7234;DHT22;3658;47.992;10.158;2023-12-20T10:11:17;22.40;38.90
7234;DHT22;3658;47.992;10.158;2023-12-20T10:13:47;22.50;38.60
7234;DHT22;3658;47.992;10.158;2023-12-20T10:16:14;22.50;38.50
7234;DHT22;3658;47.992;10.158;2023-12-20T10:18:41;22.50;38.30
7234;DHT22;3658;47.992;10.158;2023-12-20T10:21:08;22.50;38.30
7234;DHT22;3658;47.992;10.158;2023-12-20T10:23:37;22.50;38.40
7234;DHT22;3658;47.992;10.158;2023-12-20T10:26:04;22.50;38.50
7234;DHT22;3658;47.992;10.158;2023-12-20T10:28:33;22.50;38.50
7234;DHT22;3658;47.992;10.158;2023-12-20T10:31:00;22.50;38.40
7234;DHT22;3658;47.992;10.158;2023-12-20T10:33:28;22.50;38.30
7234;DHT22;3658;47.992;10.158;2023-12-20T10:35:55;22.50;38.20
7234;DHT22;3658;47.992;10.158;2023-12-20T10:38:22;22.50;38.20
7234;DHT22;3658;47.992;10.158;2023-12-20T10:40:54;22.50;38.40
7234;DHT22;3658;47.992;10.158;2023-12-20T10:43:23;22.40;38.30
7234;DHT22;3658;47.992;10.158;2023-12-20T10:45:51;22.30;38.50
7234;DHT22;3658;47.992;10.158;2023-12-20T10:48:18;22.30;38.60
7234;DHT22;3658;47.992;10.158;2023-12-20T10:50:47;22.30;38.60
7234;DHT22;3658;47.992;10.158;2023-12-20T10:53:14;22.40;38.60
7234;DHT22;3658;47.992;10.158;2023-12-20T10:55:43;22.40;38.50
7234;DHT22;3658;47.992;10.158;2023-12-20T10:58:13;22.40;38.50
7234;DHT22;3658;47.992;10.158;2023-12-20T11:00:41;22.40;38.40
7234;DHT22;3658;47.992;10.158;2023-12-20T11:03:10;22.40;38.50
7234;DHT22;3658;47.992;10.158;2023-12-20T11:05:41;22.40;38.50
7234;DHT22;3658;47.992;10.158;2023-12-20T11:08:14;22.40;38.40
7234;DHT22;3658;47.992;10.158;2023-12-20T11:10:48;22.40;38.50
7234;DHT22;3658;47.992;10.158;2023-12-20T11:13:26;22.40;38.40
7234;DHT22;3658;47.992;10.158;2023-12-20T11:15:55;22.40;38.40
7234;DHT22;3658;47.992;10.158;2023-12-20T11:18:28;22.50;38.70
7234;DHT22;3658;47.992;10.158;2023-12-20T11:20:56;22.50;38.70
7234;DHT22;3658;47.992;10.158;2023-12-20T11:23:26;22.40;38.60
7234;DHT22;3658;47.992;10.158;2023-12-20T11:25:55;22.40;38.70
7234;DHT22;3658;47.992;10.158;2023-12-20T11:28:26;22.40;38.80
7234;DHT22;3658;47.992;10.158;2023-12-20T11:30:56;22.40;38.70
7234;DHT22;3658;47.992;10.158;2023-12-20T11:33:26;22.40;38.70
7234;DHT22;3658;47.992;10.158;2023-12-20T11:35:55;22.40;38.50
7234;DHT22;3658;47.992;10.158;2023-12-20T11:38:22;22.40;38.60
7234;DHT22;3658;47.992;10.158;2023-12-20T11:40:49;22.30;38.30
7234;DHT22;3658;47.992;10.158;2023-12-20T11:43:31;22.30;38.30
7234;DHT22;3658;47.992;10.158;2023-12-20T11:46:03;22.30;38.40
7234;DHT22;3658;47.992;10.158;2023-12-20T11:48:30;22.30;38.30
7234;DHT22;3658;47.992;10.158;2023-12-20T11:50:57;22.20;38.30
7234;DHT22;3658;47.992;10.158;2023-12-20T11:53:24;22.30;38.40
7234;DHT22;3658;47.992;10.158;2023-12-20T11:55:51;22.30;38.40
7234;DHT22;3658;47.992;10.158;2023-12-20T11:58:20;22.30;38.40
7234;DHT22;3658;47.992;10.158;2023-12-20T12:00:49;22.30;38.40
7234;DHT22;3658;47.992;10.158;2023-12-20T12:03:16;22.30;38.40
7234;DHT22;3658;47.992;10.158;2023-12-20T12:05:46;22.30;38.40
7234;DHT22;3658;47.992;10.158;2023-12-20T12:08:13;22.30;38.50
7234;DHT22;3658;47.992;10.158;2023-12-20T12:10:40;22.30;38.50
7234;DHT22;3658;47.992;10.158;2023-12-20T12:13:07;22.30;38.50
7234;DHT22;3658;47.992;10.158;2023-12-20T12:15:35;22.30;38.60
7234;DHT22;3658;47.992;10.158;2023-12-20T12:18:05;22.30;38.60
7234;DHT22;3658;47.992;10.158;2023-12-20T12:20:32;22.30;38.70
7234;DHT22;3658;47.992;10.158;2023-12-20T12:23:03;22.20;38.60
7234;DHT22;3658;47.992;10.158;2023-12-20T12:25:36;22.20;38.80
7234;DHT22;3658;47.992;10.158;2023-12-20T12:28:03;22.30;39.00
7234;DHT22;3658;47.992;10.158;2023-12-20T12:30:31;22.40;39.00
7234;DHT22;3658;47.992;10.158;2023-12-20T12:32:58;22.40;39.00
7234;DHT22;3658;47.992;10.158;2023-12-20T12:35:26;22.40;39.00
7234;DHT22;3658;47.992;10.158;2023-12-20T12:37:53;22.40;39.00
7234;DHT22;3658;47.992;10.158;2023-12-20T12:40:20;22.40;38.90
7234;DHT22;3658;47.992;10.158;2023-12-20T12:42:47;22.40;38.90
7234;DHT22;3658;47.992;10.158;2023-12-20T12:45:13;22.40;39.00
7234;DHT22;3658;47.992;10.158;2023-12-20T12:47:41;22.50;39.00
7234;DHT22;3658;47.992;10.158;2023-12-20T12:50:08;22.40;38.80
7234;DHT22;3658;47.992;10.158;2023-12-20T12:52:36;22.50;38.80
7234;DHT22;3658;47.992;10.158;2023-12-20T12:55:04;22.40;38.70
7234;DHT22;3658;47.992;10.158;2023-12-20T12:57:31;22.40;38.60
7234;DHT22;3658;47.992;10.158;2023-12-20T12:59:59;22.40;38.70
7234;DHT22;3658;47.992;10.158;2023-12-20T13:02:25;22.40;38.60
7234;DHT22;3658;47.992;10.158;2023-12-20T13:04:51;22.40;38.60
7234;DHT22;3658;47.992;10.158;2023-12-20T13:07:18;22.30;38.10
7234;DHT22;3658;47.992;10.158;2023-12-20T13:09:46;22.20;37.30
7234;DHT22;3658;47.992;10.158;2023-12-20T13:12:13;22.00;36.50
7234;DHT22;3658;47.992;10.158;2023-12-20T13:14:40;22.00;35.90
7234;DHT22;3658;47.992;10.158;2023-12-20T13:17:07;21.90;35.70
7234;DHT22;3658;47.992;10.158;2023-12-20T13:19:33;21.80;35.60
7234;DHT22;3658;47.992;10.158;2023-12-20T13:22:00;21.80;35.70
7234;DHT22;3658;47.992;10.158;2023-12-20T13:24:27;21.70;35.60
7234;DHT22;3658;47.992;10.158;2023-12-20T13:26:56;21.60;35.30
7234;DHT22;3658;47.992;10.158;2023-12-20T13:29:23;21.50;35.60
7234;DHT22;3658;47.992;10.158;2023-12-20T13:31:52;21.50;35.80
7234;DHT22;3658;47.992;10.158;2023-12-20T13:34:19;21.40;34.70
7234;DHT22;3658;47.992;10.158;2023-12-20T13:36:47;21.40;35.10
7234;DHT22;3658;47.992;10.158;2023-12-20T13:39:16;21.60;35.30
7234;DHT22;3658;47.992;10.158;2023-12-20T13:41:43;21.90;35.50
7234;DHT22;3658;47.992;10.158;2023-12-20T13:44:11;22.10;35.50
7234;DHT22;3658;47.992;10.158;2023-12-20T13:46:39;22.20;35.60
7234;DHT22;3658;47.992;10.158;2023-12-20T13:49:06;22.40;35.80
7234;DHT22;3658;47.992;10.158;2023-12-20T13:51:33;22.40;35.90
7234;DHT22;3658;47.992;10.158;2023-12-20T13:53:59;22.40;36.10
7234;DHT22;3658;47.992;10.158;2023-12-20T13:56:26;22.40;36.30
7234;DHT22;3658;47.992;10.158;2023-12-20T13:58:53;22.40;36.30
7234;DHT22;3658;47.992;10.158;2023-12-20T14:01:21;22.50;36.30
7234;DHT22;3658;47.992;10.158;2023-12-20T14:03:48;22.50;36.40
7234;DHT22;3658;47.992;10.158;2023-12-20T14:06:15;22.50;36.80
7234;DHT22;3658;47.992;10.158;2023-12-20T14:08:43;22.60;36.60
7234;DHT22;3658;47.992;10.158;2023-12-20T14:11:10;22.50;36.40
7234;DHT22;3658;47.992;10.158;2023-12-20T14:13:38;22.50;37.20
7234;DHT22;3658;47.992;10.158;2023-12-20T14:16:05;22.60;37.20
7234;DHT22;3658;47.992;10.158;2023-12-20T14:18:33;22.50;37.30
7234;DHT22;3658;47.992;10.158;2023-12-20T14:20:59;22.60;37.30
7234;DHT22;3658;47.992;10.158;2023-12-20T14:23:26;22.50;37.50
7234;DHT22;3658;47.992;10.158;2023-12-20T14:25:53;22.50;37.60
7234;DHT22;3658;47.992;10.158;2023-12-20T14:28:21;22.50;37.60
7234;DHT22;3658;47.992;10.158;2023-12-20T14:30:48;22.50;37.50
7234;DHT22;3658;47.992;10.158;2023-12-20T14:33:15;22.50;37.70
7234;DHT22;3658;47.992;10.158;2023-12-20T14:35:43;22.40;37.30
7234;DHT22;3658;47.992;10.158;2023-12-20T14:38:10;22.40;37.30
7234;DHT22;3658;47.992;10.158;2023-12-20T14:40:38;22.40;37.40
7234;DHT22;3658;47.992;10.158;2023-12-20T14:43:06;22.40;37.40
7234;DHT22;3658;47.992;10.158;2023-12-20T14:45:32;22.40;37.50
7234;DHT22;3658;47.992;10.158;2023-12-20T14:47:59;22.40;37.50
7234;DHT22;3658;47.992;10.158;2023-12-20T14:50:26;22.30;37.70
7234;DHT22;3658;47.992;10.158;2023-12-20T14:52:55;22.30;37.70
7234;DHT22;3658;47.992;10.158;2023-12-20T14:55:22;22.20;37.70
7234;DHT22;3658;47.992;10.158;2023-12-20T14:57:48;22.20;37.80
7234;DHT22;3658;47.992;10.158;2023-12-20T15:00:17;22.20;37.80
7234;DHT22;3658;47.992;10.158;2023-12-20T15:02:45;22.20;37.90
7234;DHT22;3658;47.992;10.158;2023-12-20T15:05:12;22.20;37.90
7234;DHT22;3658;47.992;10.158;2023-12-20T15:07:39;22.20;38.10
7234;DHT22;3658;47.992;10.158;2023-12-20T15:10:08;22.20;38.00
7234;DHT22;3658;47.992;10.158;2023-12-20T15:12:35;22.20;38.10
7234;DHT22;3658;47.992;10.158;2023-12-20T15:15:02;22.20;38.30
7234;DHT22;3658;47.992;10.158;2023-12-20T15:17:30;22.10;38.40
7234;DHT22;3658;47.992;10.158;2023-12-20T15:19:57;22.10;38.40
7234;DHT22;3658;47.992;10.158;2023-12-20T15:22:23;22.00;38.50
7234;DHT22;3658;47.992;10.158;2023-12-20T15:24:52;22.00;38.30
7234;DHT22;3658;47.992;10.158;2023-12-20T15:27:21;22.00;38.30
7234;DHT22;3658;47.992;10.158;2023-12-20T15:29:48;22.00;38.30
7234;DHT22;3658;47.992;10.158;2023-12-20T15:32:15;21.90;38.30
7234;DHT22;3658;47.992;10.158;2023-12-20T15:34:44;21.90;38.30
7234;DHT22;3658;47.992;10.158;2023-12-20T15:37:11;21.80;38.30
7234;DHT22;3658;47.992;10.158;2023-12-20T15:39:38;21.80;38.20
7234;DHT22;3658;47.992;10.158;2023-12-20T15:42:05;21.80;38.30
7234;DHT22;3658;47.992;10.158;2023-12-20T15:44:33;21.70;38.20
7234;DHT22;3658;47.992;10.158;2023-12-20T15:47:00;21.70;38.20